sensor_id;sensor_type;location;lat;lon;timestamp;pressure;altitude;pressure_sealevel;temperature;humidity
11806;BME280;5960;42.602;23.482;2022-10-03T00:01:48;93421.19;;;13.12;69.51
11806;BME280;5960;42.602;23.482;2022-10-03T00:04:30;93418.94;;;13.02;70.37
11806;BME280;5960;42.602;23.482;2022-10-03T00:07:09;93417.72;;;12.98;70.69
11806;BME280;5960;42.602;23.482;2022-10-03T00:09:58;93415.91;;;13.05;70.17
11806;BME280;5960;42.602;23.482;2022-10-03T00:12:54;93420.19;;;13.00;70.31
11806;BME280;5960;42.602;23.482;2022-10-03T00:15:29;93417.13;;;12.96;69.90
11806;BME280;5960;42.602;23.482;2022-10-03T00:18:04;93415.72;;;12.87;69.57
11806;BME280;5960;42.602;23.482;2022-10-03T00:20:48;93403.72;;;12.71;69.30
11806;BME280;5960;42.602;23.482;2022-10-03T00:23:25;93388.88;;;12.63;69.87
11806;BME280;5960;42.602;23.482;2022-10-03T00:25:59;93389.06;;;12.61;69.88
11806;BME280;5960;42.602;23.482;2022-10-03T00:29:05;93381.75;;;12.70;70.14
11806;BME280;5960;42.602;23.482;2022-10-03T00:31:41;93375.88;;;12.75;70.15
11806;BME280;5960;42.602;23.482;2022-10-03T00:34:20;93372.22;;;12.76;70.19
11806;BME280;5960;42.602;23.482;2022-10-03T00:37:07;93376.06;;;12.73;70.20
11806;BME280;5960;42.602;23.482;2022-10-03T00:39:46;93370.38;;;12.70;70.17
11806;BME280;5960;42.602;23.482;2022-10-03T00:46:07;93376.06;;;12.67;70.74
11806;BME280;5960;42.602;23.482;2022-10-03T00:51:54;93368.94;;;12.60;71.45
11806;BME280;5960;42.602;23.482;2022-10-03T00:54:43;93370.34;;;12.56;71.61
11806;BME280;5960;42.602;23.482;2022-10-03T00:57:43;93370.75;;;12.40;72.13
11806;BME280;5960;42.602;23.482;2022-10-03T01:00:20;93369.75;;;12.41;72.19
11806;BME280;5960;42.602;23.482;2022-10-03T01:03:09;93372.78;;;12.38;73.01
11806;BME280;5960;42.602;23.482;2022-10-03T01:05:49;93376.03;;;12.33;72.61
11806;BME280;5960;42.602;23.482;2022-10-03T01:08:39;93366.72;;;12.30;73.37
11806;BME280;5960;42.602;23.482;2022-10-03T01:11:18;93367.50;;;12.24;73.40
11806;BME280;5960;42.602;23.482;2022-10-03T01:14:01;93361.78;;;12.14;74.26
11806;BME280;5960;42.602;23.482;2022-10-03T01:16:38;93358.75;;;12.17;73.66
11806;BME280;5960;42.602;23.482;2022-10-03T01:19:26;93361.19;;;12.12;74.24
11806;BME280;5960;42.602;23.482;2022-10-03T01:22:08;93352.44;;;12.11;74.32
11806;BME280;5960;42.602;23.482;2022-10-03T01:24:49;93354.47;;;12.16;74.39
11806;BME280;5960;42.602;23.482;2022-10-03T01:27:20;93348.19;;;12.17;73.74
11806;BME280;5960;42.602;23.482;2022-10-03T01:29:54;93344.75;;;12.16;73.94
11806;BME280;5960;42.602;23.482;2022-10-03T01:32:46;93348.19;;;12.10;74.32
11806;BME280;5960;42.602;23.482;2022-10-03T01:35:21;93344.94;;;12.22;73.85
11806;BME280;5960;42.602;23.482;2022-10-03T01:37:58;93348.19;;;12.24;73.93
11806;BME280;5960;42.602;23.482;2022-10-03T01:40:28;93343.13;;;12.29;74.08
11806;BME280;5960;42.602;23.482;2022-10-03T01:43:08;93340.47;;;12.29;74.18
11806;BME280;5960;42.602;23.482;2022-10-03T01:45:46;93339.28;;;12.31;73.81
11806;BME280;5960;42.602;23.482;2022-10-03T01:48:21;93339.28;;;12.38;73.42
11806;BME280;5960;42.602;23.482;2022-10-03T01:50:59;93335.81;;;12.31;73.50
11806;BME280;5960;42.602;23.482;2022-10-03T01:53:34;93338.06;;;12.34;73.91
11806;BME280;5960;42.602;23.482;2022-10-03T01:56:09;93339.50;;;12.43;73.61
11806;BME280;5960;42.602;23.482;2022-10-03T01:58:46;93342.31;;;12.42;73.55
11806;BME280;5960;42.602;23.482;2022-10-03T02:01:23;93335.41;;;12.27;74.12
11806;BME280;5960;42.602;23.482;2022-10-03T02:03:56;93334.59;;;12.13;74.72
11806;BME280;5960;42.602;23.482;2022-10-03T02:06:35;93328.47;;;11.99;75.41
11806;BME280;5960;42.602;23.482;2022-10-03T02:09:14;93338.38;;;11.91;75.89
11806;BME280;5960;42.602;23.482;2022-10-03T02:11:59;93331.88;;;11.93;75.54
11806;BME280;5960;42.602;23.482;2022-10-03T02:14:33;93334.91;;;11.90;75.64
11806;BME280;5960;42.602;23.482;2022-10-03T02:17:10;93332.09;;;11.98;75.49
11806;BME280;5960;42.602;23.482;2022-10-03T02:19:44;93329.84;;;11.95;76.22
11806;BME280;5960;42.602;23.482;2022-10-03T02:22:15;93333.56;;;12.08;75.70
11806;BME280;5960;42.602;23.482;2022-10-03T02:25:13;93324.81;;;12.14;74.96
11806;BME280;5960;42.602;23.482;2022-10-03T02:31:24;93325.19;;;11.97;75.12
11806;BME280;5960;42.602;23.482;2022-10-03T02:34:17;93321.91;;;11.82;76.00
11806;BME280;5960;42.602;23.482;2022-10-03T02:40:03;93326.81;;;11.98;75.49
11806;BME280;5960;42.602;23.482;2022-10-03T02:42:56;93331.31;;;12.04;75.32
11806;BME280;5960;42.602;23.482;2022-10-03T02:45:58;93329.44;;;11.98;76.16
11806;BME280;5960;42.602;23.482;2022-10-03T02:48:49;93331.91;;;12.00;76.36
11806;BME280;5960;42.602;23.482;2022-10-03T02:54:51;93327.28;;;12.22;75.49
11806;BME280;5960;42.602;23.482;2022-10-03T03:00:34;93323.41;;;12.25;75.82
11806;BME280;5960;42.602;23.482;2022-10-03T03:03:28;93336.63;;;12.38;75.30
11806;BME280;5960;42.602;23.482;2022-10-03T03:06:35;93333.38;;;12.43;74.42
11806;BME280;5960;42.602;23.482;2022-10-03T03:09:24;93324.22;;;12.32;74.92
11806;BME280;5960;42.602;23.482;2022-10-03T03:12:39;93326.47;;;12.28;74.83
11806;BME280;5960;42.602;23.482;2022-10-03T03:18:19;93321.78;;;12.24;75.21
11806;BME280;5960;42.602;23.482;2022-10-03T03:21:00;93313.88;;;12.30;75.50
11806;BME280;5960;42.602;23.482;2022-10-03T03:23:42;93318.72;;;12.33;75.05
11806;BME280;5960;42.602;23.482;2022-10-03T03:26:25;93320.38;;;12.41;75.24
11806;BME280;5960;42.602;23.482;2022-10-03T03:29:07;93310.84;;;12.40;75.10
11806;BME280;5960;42.602;23.482;2022-10-03T03:31:45;93314.47;;;12.32;75.19
11806;BME280;5960;42.602;23.482;2022-10-03T03:34:21;93310.81;;;12.27;75.30
11806;BME280;5960;42.602;23.482;2022-10-03T03:36:56;93312.66;;;12.26;75.71
11806;BME280;5960;42.602;23.482;2022-10-03T03:39:38;93303.09;;;12.25;75.83
11806;BME280;5960;42.602;23.482;2022-10-03T03:42:26;93308.38;;;12.18;76.75
11806;BME280;5960;42.602;23.482;2022-10-03T03:45:18;93307.16;;;12.21;76.33
11806;BME280;5960;42.602;23.482;2022-10-03T03:48:13;93302.69;;;12.15;76.33
11806;BME280;5960;42.602;23.482;2022-10-03T03:50:56;93304.13;;;12.17;76.76
11806;BME280;5960;42.602;23.482;2022-10-03T03:54:02;93306.75;;;12.31;75.81
11806;BME280;5960;42.602;23.482;2022-10-03T03:57:02;93313.44;;;12.33;75.56
11806;BME280;5960;42.602;23.482;2022-10-03T03:59:42;93301.88;;;12.41;75.57
11806;BME280;5960;42.602;23.482;2022-10-03T04:02:24;93296.78;;;12.46;75.03
11806;BME280;5960;42.602;23.482;2022-10-03T04:05:01;93296.78;;;12.46;74.62
11806;BME280;5960;42.602;23.482;2022-10-03T04:07:44;93293.34;;;12.53;74.79
11806;BME280;5960;42.602;23.482;2022-10-03T04:10:30;93292.72;;;12.51;74.83
11806;BME280;5960;42.602;23.482;2022-10-03T04:13:25;93292.31;;;12.60;74.63
11806;BME280;5960;42.602;23.482;2022-10-03T04:16:07;93281.31;;;12.63;74.07
11806;BME280;5960;42.602;23.482;2022-10-03T04:18:53;93296.78;;;12.46;74.53
11806;BME280;5960;42.602;23.482;2022-10-03T04:24:59;93293.16;;;12.27;75.92
11806;BME280;5960;42.602;23.482;2022-10-03T04:30:44;93290.09;;;12.44;75.30
11806;BME280;5960;42.602;23.482;2022-10-03T04:33:29;93281.72;;;12.60;74.42
11806;BME280;5960;42.602;23.482;2022-10-03T04:39:08;93290.69;;;12.59;74.99
11806;BME280;5960;42.602;23.482;2022-10-03T04:41:41;93294.16;;;12.53;75.02
11806;BME280;5960;42.602;23.482;2022-10-03T04:44:25;93289.91;;;12.52;74.30
11806;BME280;5960;42.602;23.482;2022-10-03T04:46:59;93299.03;;;12.49;74.95
11806;BME280;5960;42.602;23.482;2022-10-03T04:49:33;93296.19;;;12.58;75.08
11806;BME280;5960;42.602;23.482;2022-10-03T04:52:05;93293.56;;;12.51;75.10
11806;BME280;5960;42.602;23.482;2022-10-03T04:54:45;93276.44;;;12.60;74.71
11806;BME280;5960;42.602;23.482;2022-10-03T04:57:22;93263.84;;;12.62;74.94
11806;BME280;5960;42.602;23.482;2022-10-03T04:59:57;93272.78;;;12.61;75.18
11806;BME280;5960;42.602;23.482;2022-10-03T05:02:35;93274.84;;;12.66;75.99
11806;BME280;5960;42.602;23.482;2022-10-03T05:05:24;93294.75;;;12.69;76.00
11806;BME280;5960;42.602;23.482;2022-10-03T05:08:01;93277.03;;;12.69;75.10
11806;BME280;5960;42.602;23.482;2022-10-03T05:10:45;93286.81;;;12.48;74.85
11806;BME280;5960;42.602;23.482;2022-10-03T05:13:17;93286.81;;;12.55;75.10
11806;BME280;5960;42.602;23.482;2022-10-03T05:15:54;93297.38;;;12.55;75.48
11806;BME280;5960;42.602;23.482;2022-10-03T05:18:30;93283.34;;;12.68;75.46
11806;BME280;5960;42.602;23.482;2022-10-03T05:21:04;93276.03;;;12.70;75.68
11806;BME280;5960;42.602;23.482;2022-10-03T05:23:45;93288.44;;;12.70;75.34
11806;BME280;5960;42.602;23.482;2022-10-03T05:26:19;93283.75;;;12.78;75.09
11806;BME280;5960;42.602;23.482;2022-10-03T05:28:52;93294.09;;;12.87;75.52
11806;BME280;5960;42.602;23.482;2022-10-03T05:31:32;93295.28;;;12.91;75.03
11806;BME280;5960;42.602;23.482;2022-10-03T05:34:10;93292.66;;;12.98;74.56
11806;BME280;5960;42.602;23.482;2022-10-03T05:36:57;93297.53;;;13.01;74.68
11806;BME280;5960;42.602;23.482;2022-10-03T05:39:36;93298.94;;;13.03;74.99
11806;BME280;5960;42.602;23.482;2022-10-03T05:42:38;93292.03;;;13.02;74.26
11806;BME280;5960;42.602;23.482;2022-10-03T05:45:22;93286.50;;;13.11;73.68
11806;BME280;5960;42.602;23.482;2022-10-03T05:48:07;93285.91;;;13.02;74.21
11806;BME280;5960;42.602;23.482;2022-10-03T05:50:58;93286.75;;;12.96;74.06
11806;BME280;5960;42.602;23.482;2022-10-03T05:53:58;93259.44;;;13.15;74.52
11806;BME280;5960;42.602;23.482;2022-10-03T05:59:34;93231.66;;;13.38;75.74
11806;BME280;5960;42.602;23.482;2022-10-03T06:02:30;93222.34;;;13.67;74.58
11806;BME280;5960;42.602;23.482;2022-10-03T06:05:14;93228.00;;;14.03;74.03
11806;BME280;5960;42.602;23.482;2022-10-03T06:08:02;93232.66;;;14.33;72.55
11806;BME280;5960;42.602;23.482;2022-10-03T06:10:48;93250.38;;;14.58;71.57
11806;BME280;5960;42.602;23.482;2022-10-03T06:13:23;93266.69;;;14.80;71.15
11806;BME280;5960;42.602;23.482;2022-10-03T06:15:59;93279.81;;;14.94;70.81
11806;BME280;5960;42.602;23.482;2022-10-03T06:18:47;93286.53;;;14.96;69.96
11806;BME280;5960;42.602;23.482;2022-10-03T06:24:55;93310.72;;;15.25;68.01
11806;BME280;5960;42.602;23.482;2022-10-03T06:30:48;93294.94;;;15.30;66.06
11806;BME280;5960;42.602;23.482;2022-10-03T06:43:07;93303.47;;;15.51;67.01
11806;BME280;5960;42.602;23.482;2022-10-03T06:46:05;93304.25;;;16.01;66.28
11806;BME280;5960;42.602;23.482;2022-10-03T06:49:14;93286.66;;;16.18;64.18
11806;BME280;5960;42.602;23.482;2022-10-03T06:52:05;93297.56;;;15.98;64.45
11806;BME280;5960;42.602;23.482;2022-10-03T07:01:01;93317.63;;;16.24;65.42
11806;BME280;5960;42.602;23.482;2022-10-03T07:04:15;93314.19;;;16.36;64.77
11806;BME280;5960;42.602;23.482;2022-10-03T07:07:04;93318.69;;;16.35;64.72
11806;BME280;5960;42.602;23.482;2022-10-03T07:12:50;93335.66;;;16.22;64.16
11806;BME280;5960;42.602;23.482;2022-10-03T07:15:48;93332.69;;;16.00;64.58
11806;BME280;5960;42.602;23.482;2022-10-03T07:18:52;93331.97;;;15.93;65.92
11806;BME280;5960;42.602;23.482;2022-10-03T07:21:40;93334.97;;;15.78;66.19
11806;BME280;5960;42.602;23.482;2022-10-03T07:24:25;93355.53;;;15.71;66.63
11806;BME280;5960;42.602;23.482;2022-10-03T07:27:14;93358.03;;;15.65;67.01
11806;BME280;5960;42.602;23.482;2022-10-03T07:30:02;93373.66;;;15.55;67.37
11806;BME280;5960;42.602;23.482;2022-10-03T07:35:49;93398.84;;;15.09;68.97
11806;BME280;5960;42.602;23.482;2022-10-03T07:38:57;93415.53;;;14.91;70.58
11806;BME280;5960;42.602;23.482;2022-10-03T07:42:10;93420.31;;;14.82;71.31
11806;BME280;5960;42.602;23.482;2022-10-03T07:45:12;93428.13;;;14.63;72.82
11806;BME280;5960;42.602;23.482;2022-10-03T07:50:56;93420.78;;;14.33;74.47
11806;BME280;5960;42.602;23.482;2022-10-03T07:59:58;93417.75;;;13.91;76.11
11806;BME280;5960;42.602;23.482;2022-10-03T08:02:41;93423.56;;;13.61;76.81
11806;BME280;5960;42.602;23.482;2022-10-03T08:05:23;93417.06;;;13.50;78.02
11806;BME280;5960;42.602;23.482;2022-10-03T08:08:10;93409.16;;;13.43;78.31
11806;BME280;5960;42.602;23.482;2022-10-03T08:11:15;93407.50;;;13.49;77.62
11806;BME280;5960;42.602;23.482;2022-10-03T08:13:59;93407.47;;;13.56;77.34
11806;BME280;5960;42.602;23.482;2022-10-03T08:17:11;93412.91;;;13.74;77.78
11806;BME280;5960;42.602;23.482;2022-10-03T08:20:13;93410.41;;;13.93;77.70
11806;BME280;5960;42.602;23.482;2022-10-03T08:22:54;93419.09;;;14.07;77.38
11806;BME280;5960;42.602;23.482;2022-10-03T08:25:30;93413.97;;;14.12;77.27
11806;BME280;5960;42.602;23.482;2022-10-03T08:28:40;93415.31;;;14.28;76.56
11806;BME280;5960;42.602;23.482;2022-10-03T08:31:38;93420.38;;;14.36;76.26
11806;BME280;5960;42.602;23.482;2022-10-03T08:34:51;93428.19;;;14.18;77.04
11806;BME280;5960;42.602;23.482;2022-10-03T08:38:06;93436.75;;;14.20;77.03
11806;BME280;5960;42.602;23.482;2022-10-03T08:41:21;93438.03;;;14.10;77.40
11806;BME280;5960;42.602;23.482;2022-10-03T08:44:21;93436.81;;;14.06;77.94
11806;BME280;5960;42.602;23.482;2022-10-03T08:50:38;93436.41;;;14.09;78.39
11806;BME280;5960;42.602;23.482;2022-10-03T08:53:36;93434.28;;;14.25;78.62
11806;BME280;5960;42.602;23.482;2022-10-03T08:56:14;93437.63;;;14.45;78.19
11806;BME280;5960;42.602;23.482;2022-10-03T09:08:27;93423.53;;;15.09;77.38
11806;BME280;5960;42.602;23.482;2022-10-03T09:11:33;93426.16;;;15.34;76.19
11806;BME280;5960;42.602;23.482;2022-10-03T09:14:31;93430.25;;;15.93;75.52
11806;BME280;5960;42.602;23.482;2022-10-03T09:17:29;93432.44;;;17.30;72.64
11806;BME280;5960;42.602;23.482;2022-10-03T09:20:18;93432.69;;;18.17;67.74
11806;BME280;5960;42.602;23.482;2022-10-03T09:23:22;93426.47;;;18.86;64.40
11806;BME280;5960;42.602;23.482;2022-10-03T09:26:13;93426.63;;;19.08;64.46
11806;BME280;5960;42.602;23.482;2022-10-03T09:32:17;93433.91;;;18.84;63.79
11806;BME280;5960;42.602;23.482;2022-10-03T09:41:25;93434.84;;;18.32;64.34
11806;BME280;5960;42.602;23.482;2022-10-03T09:44:14;93430.78;;;18.00;65.08
11806;BME280;5960;42.602;23.482;2022-10-03T09:47:08;93430.69;;;17.71;65.34
11806;BME280;5960;42.602;23.482;2022-10-03T09:53:27;93441.00;;;17.32;68.47
11806;BME280;5960;42.602;23.482;2022-10-03T09:59:23;93426.84;;;17.08;68.31
11806;BME280;5960;42.602;23.482;2022-10-03T10:02:05;93427.44;;;16.98;68.51
11806;BME280;5960;42.602;23.482;2022-10-03T10:04:55;93425.19;;;16.95;69.44
11806;BME280;5960;42.602;23.482;2022-10-03T10:10:56;93418.41;;;16.99;68.17
11806;BME280;5960;42.602;23.482;2022-10-03T10:16:49;93428.63;;;17.26;65.63
11806;BME280;5960;42.602;23.482;2022-10-03T10:19:43;93414.31;;;18.03;61.83
11806;BME280;5960;42.602;23.482;2022-10-03T10:22:49;93416.97;;;18.61;59.58
11806;BME280;5960;42.602;23.482;2022-10-03T10:25:36;93416.00;;;18.50;58.71
11806;BME280;5960;42.602;23.482;2022-10-03T10:28:39;93426.34;;;18.47;59.49
11806;BME280;5960;42.602;23.482;2022-10-03T10:31:58;93433.88;;;17.97;59.52
11806;BME280;5960;42.602;23.482;2022-10-03T10:37:54;93429.47;;;17.91;59.32
11806;BME280;5960;42.602;23.482;2022-10-03T10:49:57;93429.59;;;18.95;54.69
11806;BME280;5960;42.602;23.482;2022-10-03T11:02:28;93412.69;;;18.31;55.44
11806;BME280;5960;42.602;23.482;2022-10-03T11:05:35;93432.38;;;18.42;54.13
11806;BME280;5960;42.602;23.482;2022-10-03T11:14:44;93422.31;;;18.61;52.45
11806;BME280;5960;42.602;23.482;2022-10-03T11:23:55;93412.31;;;20.60;48.97
11806;BME280;5960;42.602;23.482;2022-10-03T11:30:06;93416.16;;;19.97;49.11
11806;BME280;5960;42.602;23.482;2022-10-03T11:38:46;93416.00;;;19.70;50.64
11806;BME280;5960;42.602;23.482;2022-10-03T11:41:25;93434.94;;;19.85;49.87
11806;BME280;5960;42.602;23.482;2022-10-03T11:44:11;93413.59;;;20.57;48.48
11806;BME280;5960;42.602;23.482;2022-10-03T11:46:53;93410.28;;;20.72;47.22
11806;BME280;5960;42.602;23.482;2022-10-03T11:49:33;93415.50;;;20.62;47.38
11806;BME280;5960;42.602;23.482;2022-10-03T11:52:07;93416.56;;;20.61;47.48
11806;BME280;5960;42.602;23.482;2022-10-03T11:54:39;93411.66;;;21.02;45.15
11806;BME280;5960;42.602;23.482;2022-10-03T11:57:14;93405.63;;;21.23;43.78
11806;BME280;5960;42.602;23.482;2022-10-03T11:59:55;93412.22;;;21.04;44.05
11806;BME280;5960;42.602;23.482;2022-10-03T12:02:39;93404.31;;;20.15;45.25
11806;BME280;5960;42.602;23.482;2022-10-03T12:05:18;93413.03;;;19.10;47.44
11806;BME280;5960;42.602;23.482;2022-10-03T12:07:57;93410.13;;;18.65;50.00
11806;BME280;5960;42.602;23.482;2022-10-03T12:10:58;93405.97;;;19.21;49.48
11806;BME280;5960;42.602;23.482;2022-10-03T12:13:36;93396.69;;;20.02;47.24
11806;BME280;5960;42.602;23.482;2022-10-03T12:16:13;93394.78;;;19.80;47.07
11806;BME280;5960;42.602;23.482;2022-10-03T12:18:55;93395.50;;;20.15;46.36
11806;BME280;5960;42.602;23.482;2022-10-03T12:21:32;93402.31;;;20.78;45.16
11806;BME280;5960;42.602;23.482;2022-10-03T12:24:17;93402.75;;;21.29;44.32
11806;BME280;5960;42.602;23.482;2022-10-03T12:26:52;93404.97;;;21.05;44.04
11806;BME280;5960;42.602;23.482;2022-10-03T12:29:24;93405.72;;;21.00;45.20
11806;BME280;5960;42.602;23.482;2022-10-03T12:32:03;93398.97;;;21.25;45.30
11806;BME280;5960;42.602;23.482;2022-10-03T12:34:37;93392.41;;;21.11;44.93
11806;BME280;5960;42.602;23.482;2022-10-03T12:37:34;93398.03;;;21.09;45.58
11806;BME280;5960;42.602;23.482;2022-10-03T12:40:07;93392.66;;;21.85;44.01
11806;BME280;5960;42.602;23.482;2022-10-03T12:42:41;93391.81;;;21.36;43.81
11806;BME280;5960;42.602;23.482;2022-10-03T12:45:19;93401.97;;;21.72;43.39
11806;BME280;5960;42.602;23.482;2022-10-03T12:47:58;93397.53;;;22.67;41.64
11806;BME280;5960;42.602;23.482;2022-10-03T12:50:36;93393.53;;;23.32;37.75
11806;BME280;5960;42.602;23.482;2022-10-03T12:53:20;93384.94;;;24.31;36.09
11806;BME280;5960;42.602;23.482;2022-10-03T12:55:58;93387.97;;;25.15;34.13
11806;BME280;5960;42.602;23.482;2022-10-03T12:58:35;93387.09;;;26.08;32.61
11806;BME280;5960;42.602;23.482;2022-10-03T13:01:10;93385.47;;;26.12;32.76
11806;BME280;5960;42.602;23.482;2022-10-03T13:03:49;93396.41;;;26.64;31.91
11806;BME280;5960;42.602;23.482;2022-10-03T13:06:33;93389.56;;;27.43;30.50
11806;BME280;5960;42.602;23.482;2022-10-03T13:09:14;93402.34;;;28.60;28.76
11806;BME280;5960;42.602;23.482;2022-10-03T13:11:52;93396.22;;;29.05;28.06
11806;BME280;5960;42.602;23.482;2022-10-03T13:14:29;93396.34;;;29.59;27.01
11806;BME280;5960;42.602;23.482;2022-10-03T13:17:12;93395.78;;;30.02;26.13
11806;BME280;5960;42.602;23.482;2022-10-03T13:19:49;93400.59;;;29.15;26.69
11806;BME280;5960;42.602;23.482;2022-10-03T13:22:28;93408.81;;;27.42;28.77
11806;BME280;5960;42.602;23.482;2022-10-03T13:25:00;93401.34;;;27.00;29.45
11806;BME280;5960;42.602;23.482;2022-10-03T13:27:33;93409.44;;;27.72;29.07
11806;BME280;5960;42.602;23.482;2022-10-03T13:30:06;93399.69;;;27.05;30.26
11806;BME280;5960;42.602;23.482;2022-10-03T13:32:43;93400.94;;;28.06;28.95
11806;BME280;5960;42.602;23.482;2022-10-03T13:35:22;93402.75;;;29.04;28.27
11806;BME280;5960;42.602;23.482;2022-10-03T13:38:18;93397.63;;;29.93;26.66
11806;BME280;5960;42.602;23.482;2022-10-03T13:40:54;93402.84;;;30.61;25.47
11806;BME280;5960;42.602;23.482;2022-10-03T13:43:28;93406.59;;;31.01;25.22
11806;BME280;5960;42.602;23.482;2022-10-03T13:46:02;93401.63;;;30.85;25.01
11806;BME280;5960;42.602;23.482;2022-10-03T13:48:34;93407.72;;;31.44;24.83
11806;BME280;5960;42.602;23.482;2022-10-03T13:51:05;93408.22;;;31.46;24.88
11806;BME280;5960;42.602;23.482;2022-10-03T13:53:50;93403.34;;;31.95;24.29
11806;BME280;5960;42.602;23.482;2022-10-03T13:56:27;93397.50;;;32.06;23.76
11806;BME280;5960;42.602;23.482;2022-10-03T13:59:05;93405.28;;;31.86;23.46
11806;BME280;5960;42.602;23.482;2022-10-03T14:01:44;93399.59;;;31.17;23.91
11806;BME280;5960;42.602;23.482;2022-10-03T14:04:36;93398.06;;;29.86;25.29
11806;BME280;5960;42.602;23.482;2022-10-03T14:07:14;93399.22;;;29.17;25.62
11806;BME280;5960;42.602;23.482;2022-10-03T14:10:03;93390.09;;;28.48;25.68
11806;BME280;5960;42.602;23.482;2022-10-03T14:12:44;93393.66;;;28.21;25.84
11806;BME280;5960;42.602;23.482;2022-10-03T14:18:14;93390.97;;;26.26;28.35
11806;BME280;5960;42.602;23.482;2022-10-03T14:21:20;93392.84;;;25.13;29.80
11806;BME280;5960;42.602;23.482;2022-10-03T14:23:59;93396.63;;;24.16;31.52
11806;BME280;5960;42.602;23.482;2022-10-03T14:26:33;93383.28;;;22.56;33.05
11806;BME280;5960;42.602;23.482;2022-10-03T14:29:11;93383.06;;;21.51;35.41
11806;BME280;5960;42.602;23.482;2022-10-03T14:31:45;93390.31;;;21.18;36.27
11806;BME280;5960;42.602;23.482;2022-10-03T14:34:24;93390.13;;;20.92;36.70
11806;BME280;5960;42.602;23.482;2022-10-03T14:37:08;93393.88;;;20.36;37.24
11806;BME280;5960;42.602;23.482;2022-10-03T14:39:42;93393.91;;;19.92;38.58
11806;BME280;5960;42.602;23.482;2022-10-03T14:42:30;93390.31;;;19.47;39.11
11806;BME280;5960;42.602;23.482;2022-10-03T14:45:03;93398.25;;;18.90;40.02
11806;BME280;5960;42.602;23.482;2022-10-03T14:47:35;93401.75;;;18.74;40.86
11806;BME280;5960;42.602;23.482;2022-10-03T14:50:04;93406.47;;;18.55;41.51
11806;BME280;5960;42.602;23.482;2022-10-03T14:52:39;93408.56;;;18.53;41.89
11806;BME280;5960;42.602;23.482;2022-10-03T14:55:12;93413.19;;;18.28;42.77
11806;BME280;5960;42.602;23.482;2022-10-03T14:57:43;93430.59;;;18.19;43.17
11806;BME280;5960;42.602;23.482;2022-10-03T15:00:23;93416.44;;;17.66;43.91
11806;BME280;5960;42.602;23.482;2022-10-03T15:02:50;93427.09;;;17.66;44.01
11806;BME280;5960;42.602;23.482;2022-10-03T15:05:21;93419.44;;;17.81;44.43
11806;BME280;5960;42.602;23.482;2022-10-03T15:08:00;93426.19;;;17.72;44.69
11806;BME280;5960;42.602;23.482;2022-10-03T15:10:28;93421.09;;;17.23;46.31
11806;BME280;5960;42.602;23.482;2022-10-03T15:13:00;93421.56;;;16.77;48.09
11806;BME280;5960;42.602;23.482;2022-10-03T15:15:29;93425.13;;;16.29;49.86
11806;BME280;5960;42.602;23.482;2022-10-03T15:18:00;93427.03;;;16.09;51.46
11806;BME280;5960;42.602;23.482;2022-10-03T15:20:35;93409.81;;;15.75;52.18
11806;BME280;5960;42.602;23.482;2022-10-03T15:23:05;93406.13;;;15.76;52.48
11806;BME280;5960;42.602;23.482;2022-10-03T15:25:35;93408.78;;;15.57;52.80
11806;BME280;5960;42.602;23.482;2022-10-03T15:28:04;93408.06;;;15.50;52.47
11806;BME280;5960;42.602;23.482;2022-10-03T15:30:34;93406.09;;;15.39;52.71
11806;BME280;5960;42.602;23.482;2022-10-03T15:33:05;93415.41;;;15.29;53.63
11806;BME280;5960;42.602;23.482;2022-10-03T15:53:37;93438.53;;;14.97;53.41
11806;BME280;5960;42.602;23.482;2022-10-03T15:56:09;93434.22;;;15.02;53.13
11806;BME280;5960;42.602;23.482;2022-10-03T15:58:42;93436.75;;;14.91;53.37
11806;BME280;5960;42.602;23.482;2022-10-03T16:01:16;93444.28;;;14.62;53.51
11806;BME280;5960;42.602;23.482;2022-10-03T16:03:46;93452.50;;;14.47;53.61
11806;BME280;5960;42.602;23.482;2022-10-03T16:06:18;93464.03;;;14.27;54.17
11806;BME280;5960;42.602;23.482;2022-10-03T16:08:55;93469.94;;;14.29;54.51
11806;BME280;5960;42.602;23.482;2022-10-03T16:11:26;93468.53;;;14.26;55.22
11806;BME280;5960;42.602;23.482;2022-10-03T16:14:11;93474.28;;;14.10;55.35
11806;BME280;5960;42.602;23.482;2022-10-03T16:16:45;93479.06;;;13.88;55.57
11806;BME280;5960;42.602;23.482;2022-10-03T16:19:26;93479.09;;;13.74;56.58
11806;BME280;5960;42.602;23.482;2022-10-03T16:22:04;93489.28;;;13.77;56.48
11806;BME280;5960;42.602;23.482;2022-10-03T16:24:40;93483.41;;;13.68;56.40
11806;BME280;5960;42.602;23.482;2022-10-03T16:27:13;93493.78;;;13.77;56.68
11806;BME280;5960;42.602;23.482;2022-10-03T16:29:48;93504.16;;;13.78;56.70
11806;BME280;5960;42.602;23.482;2022-10-03T16:32:20;93498.84;;;13.78;56.43
11806;BME280;5960;42.602;23.482;2022-10-03T16:34:49;93504.13;;;13.85;56.73
11806;BME280;5960;42.602;23.482;2022-10-03T16:37:19;93498.84;;;13.78;57.19
11806;BME280;5960;42.602;23.482;2022-10-03T16:39:54;93503.34;;;13.71;57.52
11806;BME280;5960;42.602;23.482;2022-10-03T16:42:23;93512.72;;;13.74;57.61
11806;BME280;5960;42.602;23.482;2022-10-03T16:44:52;93512.09;;;13.78;57.38
11806;BME280;5960;42.602;23.482;2022-10-03T16:47:32;93507.59;;;13.86;57.49
11806;BME280;5960;42.602;23.482;2022-10-03T16:50:01;93514.31;;;13.81;57.54
11806;BME280;5960;42.602;23.482;2022-10-03T16:52:48;93506.59;;;13.73;57.72
11806;BME280;5960;42.602;23.482;2022-10-03T16:55:22;93509.44;;;13.78;58.00
11806;BME280;5960;42.602;23.482;2022-10-03T16:57:56;93511.50;;;13.69;58.16
11806;BME280;5960;42.602;23.482;2022-10-03T17:00:29;93504.38;;;13.57;58.71
11806;BME280;5960;42.602;23.482;2022-10-03T17:03:00;93508.88;;;13.63;58.84
11806;BME280;5960;42.602;23.482;2022-10-03T17:05:36;93512.34;;;13.50;59.80
11806;BME280;5960;42.602;23.482;2022-10-03T17:08:09;93516.63;;;13.44;59.71
11806;BME280;5960;42.602;23.482;2022-10-03T17:10:39;93511.53;;;13.49;59.95
11806;BME280;5960;42.602;23.482;2022-10-03T17:13:11;93515.78;;;13.37;60.56
11806;BME280;5960;42.602;23.482;2022-10-03T17:15:45;93509.47;;;13.38;60.89